Time;durP1;ratioP1;P1;durP2;ratioP2;P2;SDS_P1;SDS_P2;PMS_P1;PMS_P2;Temp;Humidity;BMP_temperature;BMP_pressure;BME280_temperature;BME280_humidity;BME280_pressure;Samples;Min_cycle;Max_cycle;Signal;HPM_P1;HPM_P2
2023/11/28 08:08:12;;;;;;;1.47;0.93;;;2.80;99.90;;;;;;4955360;23;20266;-75
2023/11/28 08:10:39;;;;;;;1.17;0.70;;;2.80;99.90;;;;;;4954849;28;20208;-75
2023/11/28 08:13:05;;;;;;;2.03;0.93;;;2.70;99.90;;;;;;4954825;28;20243;-74
2023/11/28 08:15:32;;;;;;;0.90;0.60;;;2.70;99.90;;;;;;4954817;28;20264;-75
2023/11/28 08:17:59;;;;;;;1.63;0.80;;;2.60;99.90;;;;;;4955239;28;20215;-75
2023/11/28 08:20:26;;;;;;;2.37;0.70;;;2.70;99.90;;;;;;4965305;28;20570;-74
2023/11/28 08:22:53;;;;;;;2.27;1.00;;;2.70;99.90;;;;;;4973583;28;20234;-75
2023/11/28 08:25:22;;;;;;;1.97;1.10;;;2.70;99.90;;;;;;4973120;28;20238;-75
2023/11/28 08:27:49;;;;;;;1.10;0.80;;;2.70;99.90;;;;;;4974232;28;20234;-74
2023/11/28 08:30:16;;;;;;;2.77;0.67;;;2.50;99.90;;;;;;4974092;28;20219;-75
2023/11/28 08:32:43;;;;;;;1.73;0.90;;;2.60;99.90;;;;;;4973962;28;20203;-75
2023/11/28 08:35:10;;;;;;;1.00;0.77;;;2.60;99.90;;;;;;4976648;28;20223;-75
2023/11/28 08:37:37;;;;;;;2.57;1.13;;;2.60;99.90;;;;;;4977967;28;20230;-74
2023/11/28 08:40:05;;;;;;;1.03;0.80;;;2.70;99.90;;;;;;4960191;28;20204;-74
2023/11/28 08:42:34;;;;;;;1.23;0.70;;;2.60;99.90;;;;;;4957587;28;20203;-75
2023/11/28 08:45:01;;;;;;;1.47;0.70;;;2.60;99.90;;;;;;4958003;28;20274;-75
2023/11/28 08:47:28;;;;;;;1.03;0.67;;;2.50;99.90;;;;;;4958537;28;20219;-72
2023/11/28 08:49:59;;;;;;;2.23;0.87;;;2.30;99.90;;;;;;4958392;29;20239;-75
2023/11/28 08:52:27;;;;;;;0.57;0.40;;;2.40;99.90;;;;;;4957988;28;20204;-75
2023/11/28 08:54:54;;;;;;;1.10;0.47;;;2.30;99.90;;;;;;4958410;28;20224;-75
2023/11/28 08:57:21;;;;;;;1.83;1.03;;;2.40;99.90;;;;;;4957627;28;20292;-75
2023/11/28 08:59:49;;;;;;;1.50;0.63;;;2.50;99.90;;;;;;4958422;28;20204;-74
2023/11/28 09:02:16;;;;;;;0.97;0.60;;;2.60;99.90;;;;;;4958132;28;20275;-75
2023/11/28 09:04:43;;;;;;;2.20;1.00;;;2.60;99.90;;;;;;4958408;28;20271;-74
2023/11/28 09:07:10;;;;;;;1.17;0.70;;;2.70;99.90;;;;;;4957526;28;20213;-75
2023/11/28 09:09:37;;;;;;;1.83;0.90;;;2.60;99.90;;;;;;4957832;28;20208;-75
2023/11/28 09:12:05;;;;;;;1.70;0.63;;;2.70;99.90;;;;;;4958017;28;20295;-75
2023/11/28 09:14:32;;;;;;;1.10;0.60;;;2.70;99.90;;;;;;4957640;28;20239;-75
2023/11/28 09:17:00;;;;;;;1.37;0.60;;;2.80;99.90;;;;;;4957955;28;20610;-75
2023/11/28 09:19:27;;;;;;;2.00;0.73;;;2.80;99.90;;;;;;4957665;28;20212;-75
2023/11/28 09:21:54;;;;;;;1.27;0.63;;;2.70;99.90;;;;;;4957886;28;20666;-75
2023/11/28 09:24:21;;;;;;;1.10;0.57;;;2.80;99.90;;;;;;4957521;28;20346;-75
2023/11/28 09:26:48;;;;;;;1.90;0.93;;;2.90;99.90;;;;;;4957830;28;20556;-73
2023/11/28 09:29:19;;;;;;;0.77;0.57;;;2.80;99.90;;;;;;4957225;28;20227;-73
2023/11/28 09:31:46;;;;;;;1.63;0.77;;;3.00;99.90;;;;;;4958261;28;20231;-73
2023/11/28 09:34:14;;;;;;;0.93;0.60;;;3.00;99.90;;;;;;4957463;28;20287;-73
2023/11/28 09:36:41;;;;;;;2.27;0.63;;;3.00;99.90;;;;;;4957640;28;20663;-73
2023/11/28 09:39:09;;;;;;;1.67;0.80;;;2.70;99.90;;;;;;4957619;28;20239;-75
2023/11/28 09:41:38;;;;;;;1.90;0.90;;;2.80;99.90;;;;;;4957526;28;20208;-73
2023/11/28 09:44:06;;;;;;;1.90;0.93;;;3.00;99.90;;;;;;4957269;28;20276;-73
2023/11/28 09:46:37;;;;;;;2.20;1.07;;;3.10;99.90;;;;;;4956508;28;20619;-73
2023/11/28 09:49:05;;;;;;;1.13;0.67;;;3.00;99.90;;;;;;4957538;28;20208;-73
2023/11/28 09:51:34;;;;;;;1.33;0.70;;;3.00;99.90;;;;;;4957147;28;20298;-73
2023/11/28 09:54:02;;;;;;;1.30;0.60;;;2.80;99.90;;;;;;4956863;28;20568;-74
2023/11/28 09:56:30;;;;;;;1.60;0.80;;;2.70;99.90;;;;;;4957227;28;20216;-73
2023/11/28 09:58:58;;;;;;;2.33;0.90;;;2.60;99.90;;;;;;4957621;28;20306;-76
2023/11/28 10:01:26;;;;;;;2.23;0.87;;;2.40;99.90;;;;;;4956933;28;20254;-75
2023/11/28 10:03:53;;;;;;;0.77;0.47;;;2.50;99.90;;;;;;4956835;28;20224;-75
2023/11/28 10:06:22;;;;;;;1.63;0.70;;;2.40;99.90;;;;;;4957061;28;20334;-76
2023/11/28 10:08:50;;;;;;;1.93;0.90;;;2.40;99.90;;;;;;4956801;28;20220;-75
2023/11/28 10:11:22;;;;;;;1.00;0.47;;;2.60;99.90;;;;;;4955866;28;20200;-73
2023/11/28 10:13:49;;;;;;;1.67;0.50;;;2.70;99.90;;;;;;4956198;28;20224;-75
2023/11/28 10:16:16;;;;;;;1.13;0.60;;;2.80;99.90;;;;;;4956414;28;20212;-72
2023/11/28 10:18:47;;;;;;;1.83;0.80;;;3.10;99.90;;;;;;4956197;28;20718;-72
2023/11/28 10:21:14;;;;;;;0.73;0.60;;;3.20;99.90;;;;;;4954122;28;20204;-73
2023/11/28 10:23:45;;;;;;;1.23;0.73;;;3.10;99.90;;;;;;4956149;28;20226;-72
2023/11/28 10:26:14;;;;;;;1.73;0.67;;;3.00;99.90;;;;;;4953898;28;20228;-73
2023/11/28 10:28:41;;;;;;;2.50;0.47;;;2.90;99.90;;;;;;4956515;28;20208;-74
2023/11/28 10:31:08;;;;;;;1.13;0.60;;;3.00;99.90;;;;;;4956485;28;20303;-72
2023/11/28 10:33:36;;;;;;;1.50;0.60;;;3.10;99.90;;;;;;4956560;28;20208;-75
2023/11/28 10:36:03;;;;;;;3.53;0.83;;;3.20;99.90;;;;;;4956538;28;20298;-73
2023/11/28 10:38:30;;;;;;;1.37;0.70;;;3.50;99.90;;;;;;4956170;28;20235;-73
2023/11/28 10:40:57;;;;;;;1.17;0.50;;;3.70;99.90;;;;;;4951918;28;20212;-73
2023/11/28 10:43:26;;;;;;;1.40;0.60;;;3.80;99.90;;;;;;4952456;28;20204;-73
2023/11/28 10:45:55;;;;;;;2.33;0.50;;;3.60;99.90;;;;;;4950270;28;20870;-74
2023/11/28 10:48:22;;;;;;;1.33;0.57;;;3.40;99.90;;;;;;4956421;28;20247;-74
2023/11/28 10:50:50;;;;;;;0.80;0.67;;;3.40;99.90;;;;;;4954985;28;20211;-74
2023/11/28 10:53:18;;;;;;;2.23;0.83;;;3.30;99.90;;;;;;4953101;28;20296;-76
2023/11/28 10:55:49;;;;;;;0.80;0.53;;;3.30;99.90;;;;;;4952410;28;20296;-76
2023/11/28 10:58:17;;;;;;;1.40;0.87;;;3.30;99.90;;;;;;4953873;28;20208;-74
2023/11/28 11:00:52;;;;;;;1.30;0.60;;;3.50;99.90;;;;;;4952988;28;20199;-73
2023/11/28 11:03:21;;;;;;;1.30;0.60;;;3.60;99.90;;;;;;4955737;28;20305;-73
2023/11/28 11:05:48;;;;;;;1.23;0.60;;;3.60;99.90;;;;;;4946541;28;20284;-73
2023/11/28 11:08:16;;;;;;;1.17;0.70;;;3.60;99.90;;;;;;4936648;29;20220;-73
2023/11/28 11:10:44;;;;;;;1.03;0.57;;;3.80;99.90;;;;;;4936717;29;20224;-73
2023/11/28 11:13:22;;;;;;;0.63;0.60;;;4.10;99.90;;;;;;4936639;29;20223;-74
2023/11/28 11:16:06;;;;;;;1.13;0.33;;;4.30;99.90;;;;;;4936592;29;20213;-73
2023/11/28 11:18:38;;;;;;;1.20;0.57;;;4.30;99.90;;;;;;4936538;29;20212;-72
2023/11/28 11:21:12;;;;;;;0.97;0.60;;;4.40;99.90;;;;;;4936621;29;20213;-73
2023/11/28 11:23:42;;;;;;;1.30;0.97;;;4.40;99.90;;;;;;4936470;29;20267;-73
2023/11/28 11:26:09;;;;;;;0.90;0.47;;;4.40;99.90;;;;;;4936322;29;20232;-74
2023/11/28 11:28:36;;;;;;;0.90;0.70;;;4.10;99.90;;;;;;4936457;29;20216;-73
2023/11/28 11:31:12;;;;;;;3.03;0.80;;;3.80;99.90;;;;;;4935692;29;20605;-73
2023/11/28 11:33:39;;;;;;;1.53;0.87;;;3.80;99.90;;;;;;4936173;29;20230;-73
2023/11/28 11:36:09;;;;;;;1.17;0.53;;;3.70;99.90;;;;;;4951546;28;20208;-73
2023/11/28 11:38:37;;;;;;;1.77;0.90;;;3.60;99.90;;;;;;4954674;28;20216;-74
2023/11/28 11:41:05;;;;;;;1.00;0.60;;;3.50;99.90;;;;;;4954795;28;20263;-72
2023/11/28 11:43:36;;;;;;;0.83;0.50;;;3.60;99.90;;;;;;4951695;28;20670;-73
2023/11/28 11:46:12;;;;;;;0.97;0.57;;;3.70;99.90;;;;;;4952318;28;20287;-73
2023/11/28 11:48:41;;;;;;;1.10;0.67;;;3.90;99.90;;;;;;4954397;28;20204;-73
2023/11/28 11:51:09;;;;;;;0.90;0.60;;;4.30;99.90;;;;;;4954458;28;20208;-73
2023/11/28 11:53:39;;;;;;;1.50;0.70;;;4.60;99.90;;;;;;4953955;28;20216;-73
2023/11/28 11:56:06;;;;;;;0.70;0.70;;;4.50;99.90;;;;;;4954521;28;20231;-73
2023/11/28 11:58:33;;;;;;;2.73;0.67;;;4.60;99.90;;;;;;4953194;28;20227;-73
2023/11/28 12:01:01;;;;;;;1.10;0.70;;;4.70;99.90;;;;;;4954935;28;20219;-72
2023/11/28 12:03:30;;;;;;;3.30;0.60;;;4.60;99.90;;;;;;4955129;28;20211;-72
2023/11/28 12:05:59;;;;;;;1.43;0.53;;;4.70;99.90;;;;;;4954993;28;20248;-72
2023/11/28 12:08:26;;;;;;;0.83;0.40;;;4.70;99.90;;;;;;4954701;28;20220;-72
2023/11/28 12:11:04;;;;;;;1.23;0.60;;;4.70;99.90;;;;;;4955466;28;20263;-72
2023/11/28 12:13:31;;;;;;;1.63;0.70;;;4.40;99.90;;;;;;4954945;28;20239;-72
2023/11/28 12:16:02;;;;;;;0.87;0.47;;;4.10;99.90;;;;;;4954716;28;20215;-72
2023/11/28 12:18:31;;;;;;;2.93;0.80;;;4.00;99.90;;;;;;4954751;28;20211;-72
2023/11/28 12:20:58;;;;;;;0.60;0.50;;;4.00;99.90;;;;;;4954879;28;20218;-72
2023/11/28 12:23:25;;;;;;;1.37;0.57;;;4.20;99.90;;;;;;4954788;28;20215;-72
2023/11/28 12:25:53;;;;;;;1.10;0.50;;;4.30;99.90;;;;;;4955056;28;20287;-72
2023/11/28 12:28:20;;;;;;;1.33;0.70;;;4.30;99.90;;;;;;4955041;28;20220;-72
2023/11/28 12:30:48;;;;;;;0.50;0.40;;;4.30;99.90;;;;;;4954845;28;20207;-71
2023/11/28 12:33:15;;;;;;;0.77;0.50;;;4.40;99.90;;;;;;4954686;28;20208;-71
2023/11/28 12:35:47;;;;;;;1.33;0.60;;;4.50;99.90;;;;;;4954708;28;20270;-72
2023/11/28 12:38:14;;;;;;;1.40;0.50;;;4.60;99.90;;;;;;4954595;28;20208;-71
2023/11/28 12:40:41;;;;;;;0.87;0.47;;;4.50;99.90;;;;;;4954570;28;20212;-72
2023/11/28 12:43:08;;;;;;;1.00;0.60;;;4.50;99.90;;;;;;4954741;28;20212;-72
2023/11/28 12:45:35;;;;;;;1.70;0.60;;;4.70;99.90;;;;;;4954364;28;20239;-71
2023/11/28 12:48:03;;;;;;;1.20;0.50;;;4.70;99.90;;;;;;4954554;28;20659;-72
2023/11/28 12:50:30;;;;;;;0.70;0.40;;;4.80;99.90;;;;;;4954736;28;20216;-73
2023/11/28 12:52:59;;;;;;;0.80;0.70;;;4.90;99.90;;;;;;4954692;28;20611;-74
2023/11/28 12:55:31;;;;;;;1.07;0.60;;;4.90;99.90;;;;;;4954495;28;20283;-71
2023/11/28 12:57:58;;;;;;;1.00;0.70;;;4.80;99.90;;;;;;4954748;28;20663;-72
2023/11/28 13:00:25;;;;;;;1.00;0.43;;;4.90;99.90;;;;;;4954408;28;20216;-72
2023/11/28 13:02:53;;;;;;;0.97;0.80;;;4.90;99.90;;;;;;4954707;28;20295;-72
2023/11/28 13:05:20;;;;;;;1.67;0.73;;;5.10;99.90;;;;;;4954705;28;20232;-72
2023/11/28 13:07:47;;;;;;;2.83;0.70;;;5.20;99.90;;;;;;4954706;28;20263;-72
2023/11/28 13:10:15;;;;;;;1.13;0.60;;;5.30;99.90;;;;;;4954551;28;20212;-72
2023/11/28 13:12:43;;;;;;;1.47;0.83;;;5.50;99.90;;;;;;4954502;28;20216;-73
2023/11/28 13:15:11;;;;;;;1.33;0.90;;;5.30;99.90;;;;;;4954280;28;20231;-72
2023/11/28 13:17:38;;;;;;;1.30;0.80;;;5.30;99.90;;;;;;4954415;28;20211;-72
2023/11/28 13:20:07;;;;;;;1.57;0.63;;;5.20;99.90;;;;;;4955917;28;20263;-72
2023/11/28 13:22:34;;;;;;;0.60;0.40;;;5.20;99.90;;;;;;4957715;28;20697;-72
2023/11/28 13:25:01;;;;;;;1.30;0.53;;;5.20;99.90;;;;;;4957853;28;20228;-73
2023/11/28 13:27:30;;;;;;;1.30;0.70;;;5.20;99.90;;;;;;4957724;28;20242;-74
2023/11/28 13:29:57;;;;;;;0.67;0.57;;;5.10;99.90;;;;;;4957779;28;20296;-72
2023/11/28 13:32:24;;;;;;;1.70;1.00;;;5.10;99.90;;;;;;4957813;28;20236;-71
2023/11/28 13:34:51;;;;;;;0.80;0.63;;;5.20;99.90;;;;;;4957361;28;20718;-72
2023/11/28 13:37:18;;;;;;;1.03;0.53;;;5.30;99.90;;;;;;4957633;28;20302;-71
2023/11/28 13:39:45;;;;;;;1.47;0.90;;;5.40;99.90;;;;;;4957312;28;20675;-71
2023/11/28 13:42:12;;;;;;;1.00;0.70;;;5.30;99.90;;;;;;4957647;28;20215;-74
2023/11/28 13:44:40;;;;;;;0.93;0.60;;;5.30;99.90;;;;;;4957503;28;20231;-74
2023/11/28 13:47:08;;;;;;;2.53;0.80;;;5.20;99.90;;;;;;4957475;28;20235;-71
2023/11/28 13:49:35;;;;;;;2.87;1.27;;;5.20;99.90;;;;;;4957586;28;20218;-74
2023/11/28 13:52:02;;;;;;;1.77;0.87;;;5.20;99.90;;;;;;4957571;28;20216;-74
2023/11/28 13:54:30;;;;;;;1.27;0.90;;;5.20;99.90;;;;;;4957289;28;20401;-75
2023/11/28 13:56:57;;;;;;;1.60;0.70;;;5.30;99.90;;;;;;4957804;28;20204;-75
2023/11/28 13:59:29;;;;;;;2.70;0.90;;;5.30;99.90;;;;;;4957455;28;20679;-71
2023/11/28 14:01:57;;;;;;;1.67;0.90;;;5.40;99.90;;;;;;4957129;28;20208;-73
2023/11/28 14:04:26;;;;;;;1.30;0.73;;;5.50;99.90;;;;;;4957492;28;20318;-72
2023/11/28 14:06:53;;;;;;;1.40;0.77;;;5.50;99.90;;;;;;4957008;28;20275;-72
2023/11/28 14:09:22;;;;;;;4.80;0.90;;;5.40;99.90;;;;;;4956989;28;20231;-72
2023/11/28 14:11:49;;;;;;;2.33;0.80;;;5.50;99.90;;;;;;4957309;28;20263;-72
2023/11/28 14:14:16;;;;;;;1.07;0.80;;;5.60;99.90;;;;;;4956937;28;20224;-72
2023/11/28 14:16:43;;;;;;;1.13;0.97;;;5.60;99.90;;;;;;4957078;28;20204;-72
2023/11/28 14:19:11;;;;;;;3.87;1.20;;;5.50;99.90;;;;;;4956874;28;20240;-71
2023/11/28 14:21:38;;;;;;;1.73;0.90;;;5.50;99.90;;;;;;4956638;28;20212;-72
2023/11/28 14:24:06;;;;;;;4.17;1.20;;;5.40;99.90;;;;;;4956772;28;20702;-72
2023/11/28 14:26:33;;;;;;;5.03;2.33;;;5.30;99.90;;;;;;4956808;28;20236;-72
2023/11/28 14:29:00;;;;;;;2.97;1.10;;;5.20;99.90;;;;;;4956939;28;20212;-72
2023/11/28 14:31:27;;;;;;;1.93;1.00;;;5.20;99.90;;;;;;4956157;28;20564;-71
2023/11/28 14:33:54;;;;;;;2.13;1.03;;;5.20;99.90;;;;;;4956960;28;20361;-72
2023/11/28 14:36:22;;;;;;;2.17;1.17;;;5.10;99.90;;;;;;4956835;28;20738;-71
2023/11/28 14:38:50;;;;;;;1.83;1.07;;;5.20;99.90;;;;;;4956872;28;20244;-71
2023/11/28 14:41:17;;;;;;;1.60;0.70;;;5.10;99.90;;;;;;4956453;28;20204;-74
2023/11/28 14:43:44;;;;;;;2.30;1.20;;;5.10;99.90;;;;;;4956688;28;20228;-74
2023/11/28 14:46:11;;;;;;;2.60;0.80;;;5.00;99.90;;;;;;4956536;28;20287;-73
2023/11/28 14:48:38;;;;;;;4.83;1.30;;;5.20;99.90;;;;;;4956281;28;20212;-73
2023/11/28 14:51:06;;;;;;;2.00;0.80;;;5.10;99.90;;;;;;4956611;28;20683;-73
2023/11/28 14:53:36;;;;;;;1.57;0.70;;;5.20;99.90;;;;;;4956603;28;20211;-74
2023/11/28 14:56:03;;;;;;;1.43;0.67;;;5.20;99.90;;;;;;4956483;28;20215;-73
2023/11/28 14:58:30;;;;;;;1.00;0.63;;;5.10;99.90;;;;;;4956133;28;20263;-74
2023/11/28 15:00:57;;;;;;;1.90;1.47;;;5.20;99.90;;;;;;4956095;28;20447;-74
2023/11/28 15:03:24;;;;;;;1.97;0.93;;;5.20;99.90;;;;;;4956158;28;20219;-74
2023/11/28 15:05:51;;;;;;;3.80;1.03;;;5.20;99.90;;;;;;4955898;28;20250;-73
2023/11/28 15:08:18;;;;;;;1.53;0.73;;;5.20;99.90;;;;;;4956019;28;20306;-73
2023/11/28 15:10:47;;;;;;;1.30;0.80;;;5.10;99.90;;;;;;4956204;28;20571;-74
2023/11/28 15:13:14;;;;;;;2.23;0.63;;;4.90;99.90;;;;;;4956050;28;20215;-74
2023/11/28 15:15:42;;;;;;;1.33;0.70;;;4.60;99.90;;;;;;4955769;28;20224;-73
2023/11/28 15:18:09;;;;;;;1.93;1.00;;;4.40;99.90;;;;;;4955584;28;20223;-73
2023/11/28 15:20:36;;;;;;;2.43;1.60;;;4.30;99.90;;;;;;4956167;28;20568;-74
2023/11/28 15:23:04;;;;;;;1.73;0.77;;;4.10;99.90;;;;;;4955965;28;20236;-74
2023/11/28 15:25:31;;;;;;;1.57;0.80;;;4.10;99.90;;;;;;4955917;28;20322;-73
2023/11/28 15:28:00;;;;;;;1.67;0.90;;;4.00;99.90;;;;;;4955864;28;20331;-74
2023/11/28 15:30:27;;;;;;;1.97;1.00;;;3.90;99.90;;;;;;4955868;28;20212;-74
2023/11/28 15:32:55;;;;;;;1.60;0.80;;;3.80;99.90;;;;;;4956124;28;20305;-73
2023/11/28 15:35:22;;;;;;;4.00;1.00;;;3.80;99.90;;;;;;4955579;28;20232;-74
2023/11/28 15:37:49;;;;;;;2.33;0.90;;;3.70;99.90;;;;;;4955889;28;20216;-73
2023/11/28 15:40:17;;;;;;;1.93;1.00;;;3.60;99.90;;;;;;4955880;28;20243;-73
2023/11/28 15:42:45;;;;;;;1.57;0.83;;;3.50;99.90;;;;;;4955305;28;20263;-74
2023/11/28 15:45:15;;;;;;;2.33;1.03;;;3.40;99.90;;;;;;4955053;28;20629;-74
2023/11/28 15:47:42;;;;;;;2.83;0.90;;;3.30;99.90;;;;;;4955574;28;20236;-73
2023/11/28 15:50:09;;;;;;;2.80;1.00;;;3.30;99.90;;;;;;4955798;28;20208;-75
2023/11/28 15:52:36;;;;;;;3.73;1.20;;;3.30;99.90;;;;;;4955343;28;20210;-74
2023/11/28 15:55:03;;;;;;;4.07;1.40;;;3.30;99.90;;;;;;4955396;28;20232;-73
2023/11/28 15:57:33;;;;;;;4.83;1.17;;;3.30;99.90;;;;;;4955334;28;20243;-73
2023/11/28 16:00:00;;;;;;;2.13;1.20;;;3.20;99.90;;;;;;4955332;28;20671;-73
2023/11/28 16:02:30;;;;;;;2.20;1.00;;;3.10;99.90;;;;;;4956132;28;20267;-73
2023/11/28 16:04:58;;;;;;;2.23;1.80;;;3.00;99.90;;;;;;4955319;28;20695;-74
2023/11/28 16:07:25;;;;;;;4.07;2.27;;;2.90;99.90;;;;;;4954942;28;20244;-74
2023/11/28 16:09:52;;;;;;;3.03;1.40;;;3.00;99.90;;;;;;4955005;28;20240;-72
2023/11/28 16:12:19;;;;;;;4.83;1.13;;;2.90;99.90;;;;;;4955526;28;20208;-72
2023/11/28 16:14:47;;;;;;;3.23;1.20;;;2.70;99.90;;;;;;4955281;28;20643;-72
2023/11/28 16:17:14;;;;;;;5.33;2.10;;;2.70;99.90;;;;;;4955605;28;20563;-72
2023/11/28 16:19:42;;;;;;;8.33;1.87;;;2.70;99.90;;;;;;4954817;28;20259;-72
2023/11/28 16:22:10;;;;;;;3.83;1.47;;;2.60;99.90;;;;;;4950339;28;20570;-74
2023/11/28 16:24:37;;;;;;;4.20;1.73;;;2.60;99.90;;;;;;4949782;28;20703;-73
2023/11/28 16:27:04;;;;;;;7.80;2.00;;;2.50;99.90;;;;;;4962725;28;20266;-73
2023/11/28 16:29:33;;;;;;;4.47;2.60;;;2.50;99.90;;;;;;4972777;28;20266;-75
2023/11/28 16:32:00;;;;;;;4.77;2.00;;;2.50;99.90;;;;;;4952771;28;20663;-72
2023/11/28 16:34:27;;;;;;;3.83;1.90;;;2.50;99.90;;;;;;4952677;28;20231;-73
2023/11/28 16:36:55;;;;;;;3.50;1.83;;;2.40;99.90;;;;;;4952775;28;20200;-73
2023/11/28 16:39:22;;;;;;;3.80;1.53;;;2.50;99.90;;;;;;4963710;28;20266;-78
2023/11/28 16:41:49;;;;;;;4.83;1.67;;;2.50;99.90;;;;;;4953764;28;20208;-73
2023/11/28 16:44:16;;;;;;;6.10;1.83;;;2.50;99.90;;;;;;4952497;28;20227;-75
2023/11/28 16:46:43;;;;;;;3.53;1.60;;;2.40;99.90;;;;;;4952683;28;20279;-73
2023/11/28 16:49:10;;;;;;;3.47;1.50;;;2.30;99.90;;;;;;4953343;28;20562;-71
2023/11/28 16:51:38;;;;;;;3.30;1.70;;;2.30;99.90;;;;;;4952637;28;20224;-74
2023/11/28 16:54:06;;;;;;;6.47;2.20;;;2.30;99.90;;;;;;4952228;28;20706;-75
2023/11/28 16:56:33;;;;;;;6.13;1.53;;;2.30;99.90;;;;;;4956409;28;20677;-75
2023/11/28 16:59:00;;;;;;;4.57;1.80;;;2.30;99.90;;;;;;4956637;28;20266;-75
2023/11/28 17:01:27;;;;;;;7.53;1.47;;;2.40;99.90;;;;;;4942823;28;20241;-73
2023/11/28 17:03:54;;;;;;;2.40;1.30;;;2.40;99.90;;;;;;4948131;28;20234;-73
2023/11/28 17:06:22;;;;;;;3.20;1.47;;;2.40;99.90;;;;;;4943989;28;20213;-75
2023/11/28 17:08:50;;;;;;;3.63;1.30;;;2.30;99.90;;;;;;4937628;29;20244;-73
2023/11/28 17:11:19;;;;;;;4.30;1.40;;;2.30;99.90;;;;;;4950700;28;20211;-72
2023/11/28 17:13:46;;;;;;;3.13;1.53;;;2.30;99.90;;;;;;4956513;28;20789;-73
2023/11/28 17:16:13;;;;;;;4.70;1.63;;;2.40;99.90;;;;;;4947868;28;20994;-73
2023/11/28 17:18:40;;;;;;;2.27;1.30;;;2.40;99.90;;;;;;4943219;28;21027;-76
2023/11/28 17:21:07;;;;;;;2.57;1.40;;;2.40;99.90;;;;;;4951284;28;20215;-73
2023/11/28 17:23:36;;;;;;;2.23;0.97;;;2.40;99.90;;;;;;4956230;28;20757;-73
2023/11/28 17:26:03;;;;;;;3.30;1.73;;;2.30;99.90;;;;;;4956270;28;20730;-74
2023/11/28 17:28:34;;;;;;;5.03;1.23;;;2.40;99.90;;;;;;4956125;28;20729;-74
2023/11/28 17:31:01;;;;;;;3.97;1.60;;;2.40;99.90;;;;;;4946215;28;20208;-75
2023/11/28 17:33:28;;;;;;;4.10;1.83;;;2.40;99.90;;;;;;4944534;28;20700;-74
2023/11/28 17:35:55;;;;;;;8.23;1.77;;;2.40;99.90;;;;;;4967635;28;20215;-74
2023/11/28 17:38:22;;;;;;;2.70;1.30;;;2.30;99.90;;;;;;4975128;28;20261;-74
2023/11/28 17:40:49;;;;;;;4.03;2.00;;;2.20;99.90;;;;;;4965102;28;20208;-73
2023/11/28 17:43:16;;;;;;;7.47;2.53;;;2.20;99.90;;;;;;4954813;28;20204;-72
2023/11/28 17:45:45;;;;;;;3.60;1.50;;;2.20;99.90;;;;;;4950238;28;20232;-73
2023/11/28 17:48:12;;;;;;;3.67;1.50;;;2.20;99.90;;;;;;4945288;28;20378;-76
2023/11/28 17:50:40;;;;;;;4.30;1.50;;;2.20;99.90;;;;;;4951619;28;20341;-73
2023/11/28 17:53:07;;;;;;;6.03;2.23;;;2.20;99.90;;;;;;4940382;28;20212;-72
2023/11/28 17:55:37;;;;;;;5.00;1.90;;;2.10;99.90;;;;;;4950048;28;20596;-73
2023/11/28 17:58:06;;;;;;;4.83;2.23;;;2.20;99.90;;;;;;4936146;29;20291;-74
2023/11/28 18:00:33;;;;;;;4.90;2.03;;;2.10;99.90;;;;;;4943331;28;20204;-72
2023/11/28 18:03:03;;;;;;;4.60;2.50;;;2.10;99.90;;;;;;4955419;28;20268;-76
2023/11/28 18:05:35;;;;;;;6.67;2.80;;;2.10;99.90;;;;;;4955708;28;20306;-76
2023/11/28 18:08:02;;;;;;;4.97;2.40;;;2.00;99.90;;;;;;4954150;28;20236;-80
2023/11/28 18:10:29;;;;;;;4.90;2.87;;;2.00;99.90;;;;;;4953385;28;20210;-76
2023/11/28 18:12:58;;;;;;;9.30;3.03;;;2.00;99.90;;;;;;4944643;28;20295;-77
2023/11/28 18:15:25;;;;;;;9.60;3.70;;;2.00;99.90;;;;;;4959395;28;20227;-78
2023/11/28 18:17:53;;;;;;;9.17;3.43;;;2.10;99.90;;;;;;4936751;29;20565;-78
2023/11/28 18:20:21;;;;;;;8.77;3.77;;;2.10;99.90;;;;;;4941536;28;20212;-78
2023/11/28 18:22:49;;;;;;;5.73;2.63;;;2.20;99.90;;;;;;4946897;28;20255;-78
2023/11/28 18:25:16;;;;;;;4.00;2.30;;;2.20;99.90;;;;;;4941581;28;20281;-77
2023/11/28 18:27:43;;;;;;;5.27;2.53;;;2.00;99.90;;;;;;4951773;28;20246;-78
2023/11/28 18:30:10;;;;;;;4.43;2.07;;;1.90;99.90;;;;;;4959873;28;20208;-79
2023/11/28 18:32:37;;;;;;;4.93;2.60;;;1.90;99.90;;;;;;4954473;28;20579;-76
2023/11/28 18:35:05;;;;;;;7.50;2.90;;;1.90;99.90;;;;;;4954501;28;20232;-84
2023/11/28 18:37:34;;;;;;;4.20;2.10;;;1.90;99.90;;;;;;4954728;28;20562;-81
2023/11/28 18:40:01;;;;;;;5.87;3.50;;;2.00;99.90;;;;;;4953865;28;20860;-77
2023/11/28 18:42:28;;;;;;;4.60;2.77;;;1.90;99.90;;;;;;4958084;28;20211;-75
2023/11/28 18:44:56;;;;;;;4.50;2.00;;;1.90;99.90;;;;;;4955248;28;20259;-75
2023/11/28 18:47:24;;;;;;;3.27;1.60;;;1.90;99.90;;;;;;4955685;28;20319;-75
2023/11/28 18:49:51;;;;;;;4.30;1.80;;;1.70;99.90;;;;;;4943424;28;20620;-75
2023/11/28 18:52:18;;;;;;;3.47;1.67;;;1.70;99.90;;;;;;4954628;28;20239;-76
2023/11/28 18:54:46;;;;;;;3.93;2.10;;;1.80;99.90;;;;;;4947712;28;20729;-72
2023/11/28 18:57:13;;;;;;;5.20;2.20;;;1.90;99.90;;;;;;4955484;28;20576;-76
2023/11/28 18:59:40;;;;;;;6.00;2.30;;;1.90;99.90;;;;;;4955254;28;20204;-74
2023/11/28 19:02:08;;;;;;;5.57;2.53;;;1.90;99.90;;;;;;4955698;28;20204;-75
2023/11/28 19:04:36;;;;;;;6.20;1.87;;;2.00;99.90;;;;;;4949200;28;20229;-75
2023/11/28 19:07:04;;;;;;;5.90;1.70;;;1.90;99.90;;;;;;4955664;28;20211;-75
2023/11/28 19:09:33;;;;;;;4.70;2.00;;;1.80;99.90;;;;;;4950453;28;20255;-75
2023/11/28 19:12:01;;;;;;;4.50;2.07;;;1.90;99.90;;;;;;4955456;28;20204;-75
2023/11/28 19:14:29;;;;;;;2.50;1.93;;;1.80;99.90;;;;;;4955150;28;20295;-75
2023/11/28 19:16:56;;;;;;;4.17;1.70;;;1.90;99.90;;;;;;4961688;28;20211;-75
2023/11/28 19:19:23;;;;;;;6.00;2.10;;;1.90;99.90;;;;;;4956283;28;20251;-76
2023/11/28 19:21:53;;;;;;;3.03;1.73;;;1.80;99.90;;;;;;4955157;28;20204;-76
2023/11/28 19:24:21;;;;;;;7.87;2.00;;;1.70;99.90;;;;;;4946696;28;20250;-75
2023/11/28 19:26:50;;;;;;;3.33;1.77;;;1.70;99.90;;;;;;4949331;28;20208;-76
2023/11/28 19:29:19;;;;;;;5.87;1.70;;;1.70;99.90;;;;;;4959376;28;20290;-75
2023/11/28 19:31:46;;;;;;;10.53;1.93;;;1.70;99.90;;;;;;4955290;28;20262;-75
2023/11/28 19:34:13;;;;;;;5.53;2.37;;;1.60;99.90;;;;;;4954360;28;20522;-75
2023/11/28 19:36:40;;;;;;;4.30;2.17;;;1.60;99.90;;;;;;4952836;28;20248;-75
2023/11/28 19:39:09;;;;;;;7.97;2.87;;;1.70;99.90;;;;;;4954711;28;20204;-75
2023/11/28 19:41:36;;;;;;;5.63;2.10;;;1.70;99.90;;;;;;4955124;28;20215;-76
2023/11/28 19:44:04;;;;;;;5.30;2.37;;;1.70;99.90;;;;;;4942926;28;20231;-76
2023/11/28 19:46:32;;;;;;;5.23;1.83;;;1.80;99.90;;;;;;4954739;28;20211;-77
2023/11/28 19:48:59;;;;;;;5.33;2.27;;;1.80;99.90;;;;;;4954563;28;20718;-77
2023/11/28 19:51:26;;;;;;;4.87;2.70;;;1.90;99.90;;;;;;4954303;28;20739;-75
2023/11/28 19:53:53;;;;;;;5.93;3.53;;;2.00;99.90;;;;;;4946945;28;20298;-75
2023/11/28 19:56:22;;;;;;;5.13;2.33;;;2.10;99.90;;;;;;4950793;28;20239;-75
2023/11/28 19:58:50;;;;;;;4.90;2.17;;;2.10;99.90;;;;;;4954343;28;20215;-75
2023/11/28 20:01:17;;;;;;;4.67;1.97;;;2.00;99.90;;;;;;4954647;28;20290;-75
2023/11/28 20:03:48;;;;;;;5.80;2.70;;;2.00;99.90;;;;;;4950010;28;20336;-75
2023/11/28 20:06:16;;;;;;;5.77;2.27;;;2.00;99.90;;;;;;4954588;28;20208;-78
2023/11/28 20:08:43;;;;;;;2.50;1.50;;;2.00;99.90;;;;;;4954674;28;20240;-76
2023/11/28 20:11:10;;;;;;;4.13;1.63;;;1.90;99.90;;;;;;4954557;28;20231;-76
2023/11/28 20:13:38;;;;;;;5.13;2.10;;;1.90;99.90;;;;;;4951665;28;20579;-75
2023/11/28 20:16:06;;;;;;;4.73;2.13;;;2.00;99.90;;;;;;4954169;28;20207;-75
2023/11/28 20:18:33;;;;;;;3.47;1.30;;;1.90;99.90;;;;;;4957797;28;20305;-76
2023/11/28 20:21:01;;;;;;;4.97;2.00;;;1.80;99.90;;;;;;4954189;28;20292;-78
2023/11/28 20:23:28;;;;;;;5.33;1.97;;;1.80;99.90;;;;;;4949510;28;20288;-76
2023/11/28 20:25:56;;;;;;;6.03;2.10;;;1.80;99.90;;;;;;4955230;28;20275;-75
2023/11/28 20:28:23;;;;;;;2.70;1.57;;;1.90;99.90;;;;;;4954226;28;20255;-77
2023/11/28 20:30:50;;;;;;;4.83;2.13;;;1.90;99.90;;;;;;4957644;28;20666;-75
2023/11/28 20:33:20;;;;;;;4.73;2.10;;;1.90;99.90;;;;;;4957674;28;20287;-75
2023/11/28 20:35:50;;;;;;;4.37;1.37;;;1.90;99.90;;;;;;4958657;28;20214;-76
2023/11/28 20:38:19;;;;;;;5.20;1.60;;;1.90;99.90;;;;;;4952696;28;20271;-76
2023/11/28 20:40:47;;;;;;;6.50;2.53;;;1.90;99.90;;;;;;4957049;28;20216;-75
2023/11/28 20:43:14;;;;;;;5.87;2.20;;;2.00;99.90;;;;;;4965499;28;20204;-76
2023/11/28 20:45:41;;;;;;;5.47;2.00;;;2.00;99.90;;;;;;4958516;28;20596;-75
2023/11/28 20:48:08;;;;;;;3.17;1.83;;;2.00;99.90;;;;;;4954667;28;20382;-75
2023/11/28 20:50:35;;;;;;;6.10;1.90;;;2.00;99.90;;;;;;4957484;28;20208;-76
2023/11/28 20:53:03;;;;;;;4.00;1.57;;;2.00;99.90;;;;;;4954965;28;20239;-75
2023/11/28 20:55:34;;;;;;;6.17;1.90;;;2.00;99.90;;;;;;4957944;28;20228;-76
2023/11/28 20:58:01;;;;;;;6.63;2.07;;;2.00;99.90;;;;;;4956011;28;20302;-78
2023/11/28 21:00:28;;;;;;;5.80;2.27;;;2.00;99.90;;;;;;4958243;28;20615;-78
2023/11/28 21:02:56;;;;;;;4.57;2.20;;;2.00;99.90;;;;;;4956726;28;20266;-75
2023/11/28 21:05:23;;;;;;;4.57;1.90;;;2.00;99.90;;;;;;4946184;28;20252;-75
2023/11/28 21:07:50;;;;;;;8.70;3.40;;;2.00;99.90;;;;;;4957731;28;20579;-75